createdAt,value
2019-05-25T00:00:12.899Z,10.47
2019-05-25T00:02:42.370Z,10.48
2019-05-25T00:05:12.456Z,10.51
2019-05-25T00:07:41.885Z,10.55
2019-05-25T00:10:12.125Z,10.55
2019-05-25T00:12:42.008Z,10.48
2019-05-25T00:15:12.535Z,10.45
2019-05-25T00:17:42.633Z,10.40
2019-05-25T00:20:14.403Z,10.41
2019-05-25T00:22:44.092Z,10.50
2019-05-25T00:25:13.865Z,10.53
2019-05-25T00:27:43.343Z,10.51
2019-05-25T00:30:13.670Z,10.55
2019-05-25T00:32:43.462Z,10.64
2019-05-25T00:35:13.809Z,10.66
2019-05-25T00:37:43.612Z,10.68
2019-05-25T00:40:13.478Z,10.71
2019-05-25T00:42:43.590Z,10.77
2019-05-25T00:45:13.360Z,10.85
2019-05-25T00:47:42.688Z,10.90
2019-05-25T00:50:12.713Z,10.95
2019-05-25T00:52:42.126Z,10.95
2019-05-25T00:55:11.152Z,10.95
2019-05-25T00:57:40.923Z,10.88
2019-05-25T01:00:10.986Z,10.81
2019-05-25T01:02:41.547Z,10.68
2019-05-25T01:05:11.638Z,10.60
2019-05-25T01:07:41.460Z,10.58
2019-05-25T01:10:12.314Z,10.51
2019-05-25T01:12:42.177Z,10.42
2019-05-25T01:15:12.114Z,10.39
2019-05-25T01:17:40.816Z,10.36
2019-05-25T01:20:11.172Z,10.30
2019-05-25T01:22:39.942Z,10.31
2019-05-25T01:25:10.080Z,10.35
2019-05-25T01:27:39.060Z,10.29
2019-05-25T01:30:09.420Z,10.21
2019-05-25T01:32:38.160Z,10.11
2019-05-25T01:35:08.199Z,10.13
2019-05-25T01:37:39.197Z,10.11
2019-05-25T01:40:08.718Z,10.11
2019-05-25T01:42:37.410Z,10.17
2019-05-25T01:45:07.494Z,10.17
2019-05-25T01:47:36.968Z,10.13
2019-05-25T01:50:07.335Z,10.01
2019-05-25T01:52:37.355Z,9.91
2019-05-25T01:55:07.186Z,9.85
2019-05-25T01:57:36.507Z,9.79
2019-05-25T02:00:07.074Z,9.68
2019-05-25T02:02:36.108Z,9.51
2019-05-25T02:05:06.481Z,9.46
2019-05-25T02:07:35.179Z,9.39
2019-05-25T02:10:04.812Z,9.31
2019-05-25T02:12:33.862Z,9.19
2019-05-25T02:15:02.529Z,9.01
2019-05-25T02:17:31.210Z,8.92
2019-05-25T02:19:59.915Z,8.79
2019-05-25T02:22:28.604Z,8.76
2019-05-25T02:24:57.281Z,8.48
2019-05-25T02:27:26.051Z,8.40
2019-05-25T02:29:55.115Z,8.24
2019-05-25T02:32:24.168Z,8.34
2019-05-25T02:34:53.176Z,8.24
2019-05-25T02:37:22.502Z,8.29
2019-05-25T02:39:52.909Z,8.29
2019-05-25T02:42:25.077Z,8.24
2019-05-25T02:44:57.249Z,8.25
2019-05-25T02:47:27.167Z,8.07
2019-05-25T02:49:59.684Z,7.74
2019-05-25T02:52:30.310Z,7.94
2019-05-25T02:55:03.100Z,7.91
2019-05-25T02:57:35.071Z,7.89
2019-05-25T03:00:05.323Z,7.98
2019-05-25T03:02:36.484Z,7.88
2019-05-25T03:05:07.871Z,8.01
2019-05-25T03:07:41.670Z,7.81
2019-05-25T03:10:19.277Z,7.75
2019-05-25T03:12:51.643Z,7.75
2019-05-25T03:15:21.254Z,7.77
2019-05-25T03:17:51.766Z,7.85
2019-05-25T03:20:24.869Z,7.93
2019-05-25T03:22:56.602Z,8.05
2019-05-25T03:25:27.672Z,8.15
2019-05-25T03:27:59.714Z,8.37
2019-05-25T03:30:38.231Z,8.55
2019-05-25T03:33:10.587Z,8.74
2019-05-25T03:35:40.913Z,8.85
2019-05-25T03:38:11.786Z,8.99
2019-05-25T03:40:41.681Z,9.18
2019-05-25T03:43:13.529Z,9.36
2019-05-25T03:45:44.737Z,9.49
2019-05-25T03:48:19.842Z,9.62
2019-05-25T03:50:51.603Z,9.71
2019-05-25T03:53:24.833Z,9.83
2019-05-25T03:56:05.400Z,9.90
2019-05-25T03:58:25.886Z,10.03
2019-05-25T04:00:57.844Z,10.14
2019-05-25T04:03:28.411Z,10.21
2019-05-25T04:05:59.642Z,10.26
2019-05-25T04:08:29.309Z,10.52
2019-05-25T04:10:59.946Z,10.62
2019-05-25T04:13:28.664Z,10.71
2019-05-25T04:16:02.406Z,10.94
2019-05-25T04:18:34.650Z,11.07
2019-05-25T04:21:03.349Z,11.16
2019-05-25T04:23:33.356Z,11.27
2019-05-25T04:26:03.947Z,11.41
2019-05-25T04:28:32.667Z,11.47
2019-05-25T04:31:02.139Z,11.39
2019-05-25T04:33:32.259Z,11.58
2019-05-25T04:36:04.145Z,11.73
2019-05-25T04:38:33.419Z,11.64
2019-05-25T04:41:04.555Z,11.70
2019-05-25T04:43:34.663Z,11.87
2019-05-25T04:46:04.479Z,12.02
2019-05-25T04:48:33.551Z,11.77
2019-05-25T04:51:03.775Z,11.80
2019-05-25T04:53:33.138Z,11.88
2019-05-25T04:56:02.523Z,11.84
2019-05-25T04:58:31.223Z,11.89
2019-05-25T05:01:00.086Z,11.83
2019-05-25T05:03:28.723Z,11.92
2019-05-25T05:05:57.404Z,11.96
2019-05-25T05:08:26.914Z,11.89
2019-05-25T05:10:55.603Z,12.00
2019-05-25T05:13:24.525Z,12.18
2019-05-25T05:15:53.661Z,11.93
2019-05-25T05:18:22.362Z,11.92
2019-05-25T05:20:51.364Z,11.90
2019-05-25T05:23:20.052Z,12.15
2019-05-25T05:25:48.755Z,12.13
2019-05-25T05:28:17.522Z,12.36
2019-05-25T05:30:46.786Z,12.32
2019-05-25T05:33:15.560Z,12.43
2019-05-25T05:35:44.874Z,12.54
2019-05-25T05:38:14.582Z,12.70
2019-05-25T05:40:44.911Z,12.51
2019-05-25T05:43:13.663Z,12.48
2019-05-25T05:45:43.384Z,12.56
2019-05-25T05:48:13.379Z,12.62
2019-05-25T05:50:42.589Z,12.57
2019-05-25T05:53:11.618Z,12.51
2019-05-25T05:55:40.294Z,12.51
2019-05-25T05:58:08.999Z,12.73
2019-05-25T06:00:37.702Z,12.63
2019-05-25T06:03:06.390Z,12.70
2019-05-25T06:05:35.114Z,12.71
2019-05-25T06:08:04.201Z,13.25
2019-05-25T06:10:32.894Z,13.36
2019-05-25T06:13:01.592Z,13.46
2019-05-25T06:15:30.249Z,13.34
2019-05-25T06:17:58.900Z,13.39
2019-05-25T06:20:27.582Z,12.96
2019-05-25T06:22:56.268Z,12.94
2019-05-25T06:25:25.032Z,12.86
2019-05-25T06:27:53.713Z,12.83
2019-05-25T06:30:24.129Z,12.76
2019-05-25T06:32:52.836Z,12.47
2019-05-25T06:35:21.553Z,12.45
2019-05-25T06:37:50.236Z,12.58
2019-05-25T06:40:19.611Z,12.48
2019-05-25T06:42:48.661Z,12.69
2019-05-25T06:45:18.165Z,12.44
2019-05-25T06:47:49.209Z,12.56
2019-05-25T06:50:19.416Z,12.64
2019-05-25T06:52:48.941Z,12.58
2019-05-25T06:55:20.579Z,12.55
2019-05-25T06:57:50.552Z,12.60
2019-05-25T07:00:24.430Z,12.51
2019-05-25T07:02:54.446Z,12.65
2019-05-25T07:05:26.753Z,12.88
2019-05-25T07:08:00.883Z,12.84
2019-05-25T07:10:32.561Z,12.66
2019-05-25T07:13:02.615Z,12.84
2019-05-25T07:15:35.415Z,12.87
2019-05-25T07:18:05.324Z,12.84
2019-05-25T07:20:34.604Z,12.69
2019-05-25T07:23:03.585Z,12.50
2019-05-25T07:25:33.148Z,12.39
2019-05-25T07:28:03.257Z,12.43
2019-05-25T07:30:33.818Z,12.79
2019-05-25T07:33:03.528Z,12.71
2019-05-25T07:35:36.279Z,12.68
2019-05-25T07:38:06.673Z,12.84
2019-05-25T07:40:36.347Z,12.92
2019-05-25T07:43:07.647Z,13.06
2019-05-25T07:45:38.389Z,12.91
2019-05-25T07:48:09.331Z,13.05
2019-05-25T07:50:39.319Z,13.31
2019-05-25T07:53:09.813Z,13.39
2019-05-25T07:55:42.081Z,13.33
2019-05-25T07:58:17.385Z,13.41
2019-05-25T08:00:46.567Z,13.55
2019-05-25T08:03:16.369Z,13.50
2019-05-25T08:05:47.985Z,13.39
2019-05-25T08:08:18.272Z,13.37
2019-05-25T08:10:47.760Z,13.55
2019-05-25T08:13:18.126Z,13.54
2019-05-25T08:15:48.318Z,13.53
2019-05-25T08:18:17.379Z,13.29
2019-05-25T08:20:47.532Z,13.01
2019-05-25T08:23:17.390Z,13.06
2019-05-25T08:25:46.887Z,13.30
2019-05-25T08:28:32.188Z,13.25
2019-05-25T08:30:52.128Z,13.16
2019-05-25T08:33:22.129Z,13.57
2019-05-25T08:35:50.799Z,13.79
2019-05-25T08:38:19.513Z,13.90
2019-05-25T08:40:48.973Z,13.80
2019-05-25T08:43:17.646Z,13.97
2019-05-25T08:45:49.663Z,14.26
2019-05-25T08:48:18.424Z,13.97
2019-05-25T08:50:47.994Z,14.25
2019-05-25T08:53:21.551Z,14.51
2019-05-25T08:55:50.736Z,14.84
2019-05-25T08:58:22.135Z,14.92
2019-05-25T09:00:51.615Z,14.45
2019-05-25T09:03:20.331Z,14.37
2019-05-25T09:05:49.705Z,14.22
2019-05-25T09:08:19.678Z,14.67
2019-05-25T09:10:49.132Z,14.62
2019-05-25T09:13:19.073Z,14.41
2019-05-25T09:15:50.194Z,14.37
2019-05-25T09:18:20.225Z,14.03
2019-05-25T09:20:49.404Z,13.76
2019-05-25T09:23:18.810Z,14.14
2019-05-25T09:25:49.369Z,14.19
2019-05-25T09:28:21.404Z,14.11
2019-05-25T09:30:50.361Z,14.58
2019-05-25T09:33:19.539Z,14.66
2019-05-25T09:35:48.620Z,14.86
2019-05-25T09:38:18.096Z,15.62
2019-05-25T09:40:47.579Z,16.07
2019-05-25T09:43:16.870Z,15.65
2019-05-25T09:45:47.449Z,15.83
2019-05-25T09:48:17.215Z,16.37
2019-05-25T09:50:47.772Z,16.07
2019-05-25T09:53:18.258Z,16.18
2019-05-25T09:55:48.295Z,17.22
2019-05-25T09:58:21.202Z,17.35
2019-05-25T10:00:56.453Z,17.07
2019-05-25T10:03:27.059Z,17.98
2019-05-25T10:05:56.662Z,17.00
2019-05-25T10:08:26.984Z,16.83
2019-05-25T10:10:59.623Z,17.22
2019-05-25T10:13:28.298Z,17.39
2019-05-25T10:15:57.254Z,16.75
2019-05-25T10:18:26.892Z,16.47
2019-05-25T10:20:56.375Z,16.32
2019-05-25T10:23:28.788Z,16.75
2019-05-25T10:26:00.266Z,16.54
2019-05-25T10:28:30.599Z,16.21
2019-05-25T10:31:01.796Z,16.65
2019-05-25T10:33:33.203Z,17.19
2019-05-25T10:36:04.765Z,17.20
2019-05-25T10:38:44.028Z,17.00
2019-05-25T10:41:14.531Z,17.99
2019-05-25T10:43:45.248Z,18.65
2019-05-25T10:46:14.771Z,18.51
2019-05-25T10:48:44.917Z,17.71
2019-05-25T10:51:15.420Z,18.32
2019-05-25T10:53:55.148Z,19.03
2019-05-25T10:56:28.144Z,20.14
2019-05-25T10:58:57.604Z,19.27
2019-05-25T11:01:27.051Z,18.08
2019-05-25T11:03:57.218Z,17.32
2019-05-25T11:06:28.249Z,17.06
2019-05-25T11:08:57.420Z,17.28
2019-05-25T11:11:26.894Z,17.40
2019-05-25T11:13:58.165Z,17.97
2019-05-25T11:16:28.034Z,17.11
2019-05-25T11:18:58.167Z,17.72
2019-05-25T11:21:27.927Z,17.94
2019-05-25T11:23:59.044Z,17.03
2019-05-25T11:26:29.265Z,16.89
2019-05-25T11:28:59.458Z,17.05
2019-05-25T11:31:29.921Z,17.19
2019-05-25T11:33:59.482Z,18.46
2019-05-25T11:36:28.165Z,18.86
2019-05-25T11:38:57.445Z,19.59
2019-05-25T11:41:26.150Z,19.35
2019-05-25T11:43:55.408Z,19.40
2019-05-25T11:46:24.760Z,19.33
2019-05-25T11:48:55.098Z,19.92
2019-05-25T11:51:24.218Z,22.73
2019-05-25T11:53:54.308Z,22.73
2019-05-25T11:56:23.639Z,21.06
2019-05-25T11:58:54.232Z,22.10
2019-05-25T12:01:24.432Z,22.10
2019-05-25T12:03:54.282Z,22.16
2019-05-25T12:06:23.561Z,21.69
2019-05-25T12:08:53.294Z,20.94
2019-05-25T12:11:24.327Z,20.69
2019-05-25T12:13:55.915Z,20.69
2019-05-25T12:16:28.103Z,20.50
2019-05-25T12:18:59.505Z,20.29
2019-05-25T12:21:29.455Z,19.88
2019-05-25T12:23:58.424Z,19.72
2019-05-25T12:26:28.416Z,19.20
2019-05-25T12:28:58.185Z,19.48
2019-05-25T12:31:27.845Z,20.08
2019-05-25T12:34:10.356Z,19.65
2019-05-25T12:36:41.310Z,18.85
2019-05-25T12:39:10.771Z,19.31
2019-05-25T12:41:40.307Z,19.20
2019-05-25T12:44:13.886Z,19.64
2019-05-25T12:46:43.605Z,19.15
2019-05-25T12:49:16.194Z,19.59
2019-05-25T12:51:47.099Z,20.11
2019-05-25T12:54:19.532Z,22.14
2019-05-25T12:56:49.320Z,23.29
2019-05-25T12:59:18.429Z,21.41
2019-05-25T13:01:49.244Z,20.51
2019-05-25T13:04:18.307Z,20.48
2019-05-25T13:06:47.376Z,20.23
2019-05-25T13:09:16.040Z,20.40
2019-05-25T13:11:45.034Z,20.87
2019-05-25T13:14:18.046Z,21.67
2019-05-25T13:16:49.069Z,21.26
2019-05-25T13:19:19.476Z,21.64
2019-05-25T13:21:50.808Z,21.95
2019-05-25T13:24:21.899Z,22.05
2019-05-25T13:26:51.521Z,21.76
2019-05-25T13:29:25.675Z,22.19
2019-05-25T13:31:55.092Z,23.33
2019-05-25T13:34:24.159Z,22.60
2019-05-25T13:36:53.761Z,20.91
2019-05-25T13:39:24.111Z,19.80
2019-05-25T13:41:52.813Z,20.05
2019-05-25T13:44:22.229Z,20.77
2019-05-25T13:46:50.960Z,20.33
2019-05-25T13:49:21.566Z,20.41
2019-05-25T13:51:51.415Z,20.62
2019-05-25T13:54:20.738Z,20.13
2019-05-25T13:56:50.739Z,20.74
2019-05-25T13:59:19.428Z,21.09
2019-05-25T14:01:50.215Z,22.56
2019-05-25T14:04:20.023Z,23.86
2019-05-25T14:06:49.787Z,23.50
2019-05-25T14:09:18.923Z,23.52
2019-05-25T14:11:48.005Z,21.49
2019-05-25T14:14:17.047Z,19.65
2019-05-25T14:16:46.169Z,19.71
2019-05-25T14:19:16.062Z,19.86
2019-05-25T14:21:46.636Z,20.13
2019-05-25T14:24:16.520Z,20.57
2019-05-25T14:26:45.966Z,22.42
2019-05-25T14:29:21.441Z,22.42
2019-05-25T14:31:52.466Z,25.09
2019-05-25T14:34:25.007Z,27.92
2019-05-25T14:36:55.389Z,26.97
2019-05-25T14:39:26.190Z,24.86
2019-05-25T14:41:56.442Z,21.32
2019-05-25T14:44:31.992Z,20.47
2019-05-25T14:47:06.924Z,22.06
2019-05-25T14:49:46.052Z,25.44
2019-05-25T14:52:18.251Z,26.39
2019-05-25T14:54:50.910Z,28.27
2019-05-25T14:57:22.418Z,29.40
2019-05-25T14:59:52.784Z,30.61
2019-05-25T15:02:26.015Z,30.20
2019-05-25T15:05:00.493Z,30.18
2019-05-25T15:07:29.474Z,27.95
2019-05-25T15:09:58.537Z,24.53
2019-05-25T15:12:27.566Z,22.80
2019-05-25T15:14:57.067Z,22.73
2019-05-25T15:17:26.856Z,22.89
2019-05-25T15:19:55.575Z,21.94
2019-05-25T15:22:24.540Z,20.75
2019-05-25T15:24:53.638Z,20.05
2019-05-25T15:27:22.653Z,20.31
2019-05-25T15:29:52.262Z,20.49
2019-05-25T15:32:21.794Z,20.62
2019-05-25T15:34:51.565Z,20.06
2019-05-25T15:37:22.652Z,19.93
2019-05-25T15:39:54.098Z,19.90
2019-05-25T15:42:23.522Z,20.02
2019-05-25T15:44:53.277Z,20.40
2019-05-25T15:47:23.663Z,20.00
2019-05-25T15:49:53.711Z,19.80
2019-05-25T15:52:23.751Z,19.90
2019-05-25T15:54:53.723Z,19.69
2019-05-25T15:57:23.258Z,19.18
2019-05-25T15:59:52.830Z,18.79
2019-05-25T16:02:35.615Z,18.10
2019-05-25T16:04:52.013Z,17.99
2019-05-25T16:07:20.689Z,18.20
2019-05-25T16:09:49.428Z,18.32
2019-05-25T16:12:18.115Z,18.29
2019-05-25T16:14:46.795Z,18.03
2019-05-25T16:17:15.476Z,17.79
2019-05-25T16:19:44.131Z,17.85
2019-05-25T16:22:13.114Z,18.46
2019-05-25T16:24:42.143Z,18.14
2019-05-25T16:27:10.812Z,18.22
2019-05-25T16:29:39.515Z,18.65
2019-05-25T16:32:08.493Z,18.67
2019-05-25T16:34:37.182Z,18.80
2019-05-25T16:37:06.076Z,18.48
2019-05-25T16:39:34.753Z,18.66
2019-05-25T16:42:03.418Z,19.16
2019-05-25T16:44:32.688Z,19.35
2019-05-25T16:47:01.359Z,19.06
2019-05-25T16:49:30.071Z,18.86
2019-05-25T16:51:59.989Z,18.76
2019-05-25T16:54:28.777Z,18.33
2019-05-25T16:56:57.457Z,17.91
2019-05-25T16:59:26.149Z,18.03
2019-05-25T17:01:54.814Z,18.23
2019-05-25T17:04:23.492Z,18.04
2019-05-25T17:06:52.490Z,18.49
2019-05-25T17:09:21.161Z,19.54
2019-05-25T17:11:49.831Z,22.43
2019-05-25T17:14:18.514Z,23.65
2019-05-25T17:16:47.199Z,23.76
2019-05-25T17:19:15.899Z,24.51
2019-05-25T17:21:44.899Z,26.27
2019-05-25T17:24:13.623Z,25.89
2019-05-25T17:26:42.341Z,27.39
2019-05-25T17:29:11.367Z,27.82
2019-05-25T17:31:40.122Z,27.67
2019-05-25T17:34:08.970Z,27.22
2019-05-25T17:36:37.633Z,27.96
2019-05-25T17:39:08.440Z,26.57
2019-05-25T17:41:37.147Z,26.14
2019-05-25T17:44:05.809Z,26.93
2019-05-25T17:46:34.470Z,27.71
2019-05-25T17:49:03.456Z,28.83
2019-05-25T17:51:32.218Z,27.85
2019-05-25T17:54:01.288Z,26.21
2019-05-25T17:56:29.992Z,25.97
2019-05-25T17:58:58.748Z,26.87
2019-05-25T18:01:27.477Z,28.34
2019-05-25T18:04:06.773Z,27.41
2019-05-25T18:06:26.544Z,27.38
2019-05-25T18:08:55.299Z,27.90
2019-05-25T18:11:24.045Z,28.08
2019-05-25T18:13:52.724Z,27.26
2019-05-25T18:16:21.504Z,26.50
2019-05-25T18:18:50.474Z,25.92
2019-05-25T18:21:19.140Z,25.06
2019-05-25T18:23:47.966Z,24.46
2019-05-25T18:26:19.569Z,23.29
2019-05-25T18:28:50.795Z,22.11
2019-05-25T18:31:19.539Z,21.72
2019-05-25T18:33:52.021Z,21.13
2019-05-25T18:36:20.722Z,20.55
2019-05-25T18:38:57.398Z,19.99
2019-05-25T18:41:26.328Z,19.17
2019-05-25T18:43:55.028Z,18.32
2019-05-25T18:46:24.048Z,16.68
2019-05-25T18:48:52.729Z,15.49
2019-05-25T18:51:21.428Z,14.41
2019-05-25T18:53:50.096Z,13.81
2019-05-25T18:56:18.775Z,13.37
2019-05-25T18:58:47.499Z,13.04
2019-05-25T19:01:16.133Z,12.85
2019-05-25T19:03:44.835Z,12.70
2019-05-25T19:06:13.494Z,12.72
2019-05-25T19:08:42.183Z,12.75
2019-05-25T19:11:10.855Z,12.63
2019-05-25T19:13:39.535Z,12.57
2019-05-25T19:16:08.212Z,12.47
2019-05-25T19:18:36.878Z,12.27
2019-05-25T19:21:05.618Z,12.07
2019-05-25T19:23:34.306Z,11.89
2019-05-25T19:26:02.991Z,11.66
2019-05-25T19:28:31.682Z,11.46
2019-05-25T19:31:00.398Z,11.25
2019-05-25T19:33:29.108Z,11.05
2019-05-25T19:35:57.785Z,10.84
2019-05-25T19:38:26.451Z,10.64
2019-05-25T19:40:55.135Z,10.45
2019-05-25T19:43:23.864Z,10.12
2019-05-25T19:45:52.674Z,10.02
2019-05-25T19:48:21.469Z,10.27
2019-05-25T19:50:50.137Z,10.25
2019-05-25T19:53:19.161Z,10.07
2019-05-25T19:55:47.850Z,9.95
2019-05-25T19:58:16.504Z,9.85
2019-05-25T20:00:45.158Z,9.83
2019-05-25T20:03:13.865Z,9.99
2019-05-25T20:05:42.516Z,9.98
2019-05-25T20:08:11.215Z,9.85
2019-05-25T20:10:39.899Z,9.66
2019-05-25T20:13:08.581Z,9.61
2019-05-25T20:15:37.290Z,9.55
2019-05-25T20:18:06.093Z,9.51
2019-05-25T20:20:34.767Z,9.35
2019-05-25T20:23:03.457Z,9.09
2019-05-25T20:25:32.135Z,8.59
2019-05-25T20:28:00.799Z,8.45
2019-05-25T20:30:29.578Z,8.64
2019-05-25T20:32:58.635Z,8.68
2019-05-25T20:35:33.136Z,8.65
2019-05-25T20:37:57.730Z,8.63
2019-05-25T20:40:26.455Z,8.64
2019-05-25T20:42:55.479Z,8.72
2019-05-25T20:45:24.698Z,8.61
2019-05-25T20:47:56.019Z,8.73
2019-05-25T20:50:25.024Z,8.63
2019-05-25T20:52:53.880Z,8.34
2019-05-25T20:55:22.622Z,8.41
2019-05-25T20:57:51.601Z,8.41
2019-05-25T21:00:24.012Z,8.53
2019-05-25T21:03:05.308Z,8.57
2019-05-25T21:05:21.218Z,8.54
2019-05-25T21:07:49.889Z,8.58
2019-05-25T21:10:18.718Z,8.48
2019-05-25T21:12:47.403Z,8.35
2019-05-25T21:15:16.205Z,8.32
2019-05-25T21:17:44.888Z,8.04
2019-05-25T21:20:14.116Z,7.92
2019-05-25T21:22:42.809Z,8.01
2019-05-25T21:25:11.824Z,8.07
2019-05-25T21:27:40.512Z,8.09
2019-05-25T21:30:10.092Z,7.98
2019-05-25T21:32:38.878Z,8.04
2019-05-25T21:35:09.888Z,8.13
2019-05-25T21:37:39.420Z,8.11
2019-05-25T21:40:09.250Z,8.01
2019-05-25T21:42:40.701Z,8.02
2019-05-25T21:45:13.964Z,8.13
2019-05-25T21:47:43.346Z,8.09
2019-05-25T21:50:12.577Z,7.91
2019-05-25T21:52:45.704Z,7.90
2019-05-25T21:55:17.435Z,7.99
2019-05-25T21:57:49.748Z,7.82
2019-05-25T22:00:26.176Z,7.82
2019-05-25T22:02:55.216Z,7.82
2019-05-25T22:05:25.121Z,7.83
2019-05-25T22:07:55.018Z,7.63
2019-05-25T22:10:25.425Z,7.72
2019-05-25T22:12:56.422Z,7.81
2019-05-25T22:15:27.598Z,7.74
2019-05-25T22:17:58.328Z,7.73
2019-05-25T22:20:30.529Z,7.55
2019-05-25T22:23:01.329Z,7.21
2019-05-25T22:25:33.083Z,6.88
2019-05-25T22:28:02.580Z,6.77
2019-05-25T22:30:32.637Z,6.96
2019-05-25T22:33:03.228Z,7.18
2019-05-25T22:35:33.387Z,7.34
2019-05-25T22:38:02.765Z,7.42
2019-05-25T22:40:32.596Z,7.43
2019-05-25T22:43:03.720Z,7.48
2019-05-25T22:45:33.447Z,7.44
2019-05-25T22:48:02.494Z,7.48
2019-05-25T22:50:38.003Z,7.52
2019-05-25T22:53:07.126Z,7.62
2019-05-25T22:55:37.376Z,7.53
2019-05-25T22:58:07.982Z,7.26
2019-05-25T23:00:39.620Z,7.14
2019-05-25T23:03:08.918Z,7.06
2019-05-25T23:05:37.991Z,7.11
2019-05-25T23:08:07.887Z,7.00
2019-05-25T23:10:36.931Z,6.97
2019-05-25T23:13:07.005Z,6.70
2019-05-25T23:15:36.527Z,6.57
2019-05-25T23:18:06.402Z,6.70
2019-05-25T23:20:36.964Z,6.79
2019-05-25T23:23:07.678Z,6.73
2019-05-25T23:25:36.346Z,6.90
2019-05-25T23:28:05.102Z,6.93
2019-05-25T23:30:33.806Z,6.81
2019-05-25T23:33:02.516Z,6.58
2019-05-25T23:35:31.869Z,6.60
2019-05-25T23:38:03.539Z,6.78
2019-05-25T23:40:31.046Z,6.81
2019-05-25T23:42:59.735Z,6.82
2019-05-25T23:45:28.405Z,6.86
2019-05-25T23:47:57.568Z,6.84
2019-05-25T23:50:26.275Z,6.67
2019-05-25T23:52:55.041Z,6.73
2019-05-25T23:55:24.049Z,6.88
2019-05-25T23:57:52.713Z,6.90
